sensor_id;sensor_type;location;lat;lon;timestamp;pressure;altitude;pressure_sealevel;temperature;humidity
73860;BME280;62197;51.632;13.700;2023-08-07T00:01:49;99049.13;;;14.59;100.00
73860;BME280;62197;51.632;13.700;2023-08-07T00:04:15;99055.88;;;14.53;100.00
73860;BME280;62197;51.632;13.700;2023-08-07T00:06:40;99041.56;;;14.45;100.00
73860;BME280;62197;51.632;13.700;2023-08-07T00:09:05;99048.28;;;14.58;100.00
73860;BME280;62197;51.632;13.700;2023-08-07T00:11:31;99039.47;;;14.37;100.00
73860;BME280;62197;51.632;13.700;2023-08-07T00:13:57;99045.06;;;14.32;100.00
73860;BME280;62197;51.632;13.700;2023-08-07T00:16:23;99047.19;;;14.40;100.00
73860;BME280;62197;51.632;13.700;2023-08-07T00:18:48;99052.81;;;14.35;100.00
73860;BME280;62197;51.632;13.700;2023-08-07T00:21:13;99048.53;;;14.24;100.00
73860;BME280;62197;51.632;13.700;2023-08-07T00:23:39;99049.75;;;14.13;100.00
73860;BME280;62197;51.632;13.700;2023-08-07T00:26:04;99050.06;;;14.12;100.00
73860;BME280;62197;51.632;13.700;2023-08-07T00:28:29;99044.97;;;14.19;100.00
73860;BME280;62197;51.632;13.700;2023-08-07T00:30:56;99061.88;;;14.22;100.00
73860;BME280;62197;51.632;13.700;2023-08-07T00:33:21;99054.78;;;14.11;100.00
73860;BME280;62197;51.632;13.700;2023-08-07T00:35:46;99052.53;;;14.13;100.00
73860;BME280;62197;51.632;13.700;2023-08-07T00:38:12;99064.69;;;14.17;100.00
73860;BME280;62197;51.632;13.700;2023-08-07T00:40:38;99062.84;;;14.13;100.00
73860;BME280;62197;51.632;13.700;2023-08-07T00:43:03;99062.00;;;14.12;100.00
73860;BME280;62197;51.632;13.700;2023-08-07T00:45:29;99058.69;;;14.10;100.00
73860;BME280;62197;51.632;13.700;2023-08-07T00:47:54;99059.28;;;14.07;100.00
73860;BME280;62197;51.632;13.700;2023-08-07T00:50:20;99066.41;;;14.13;100.00
73860;BME280;62197;51.632;13.700;2023-08-07T00:52:45;99076.97;;;14.11;100.00
73860;BME280;62197;51.632;13.700;2023-08-07T00:55:11;99070.91;;;14.09;100.00
73860;BME280;62197;51.632;13.700;2023-08-07T00:57:36;99069.03;;;14.28;100.00
73860;BME280;62197;51.632;13.700;2023-08-07T01:00:02;99072.44;;;14.20;100.00
73860;BME280;62197;51.632;13.700;2023-08-07T01:02:28;99067.78;;;14.16;100.00
73860;BME280;62197;51.632;13.700;2023-08-07T01:04:53;99065.31;;;14.14;100.00
73860;BME280;62197;51.632;13.700;2023-08-07T01:07:18;99067.78;;;14.16;100.00
73860;BME280;62197;51.632;13.700;2023-08-07T01:09:43;99071.91;;;14.18;100.00
73860;BME280;62197;51.632;13.700;2023-08-07T01:12:19;99074.59;;;14.23;100.00
73860;BME280;62197;51.632;13.700;2023-08-07T01:14:52;99068.41;;;14.31;100.00
73860;BME280;62197;51.632;13.700;2023-08-07T01:17:22;99068.47;;;14.26;100.00
73860;BME280;62197;51.632;13.700;2023-08-07T01:19:52;99065.63;;;14.31;100.00
73860;BME280;62197;51.632;13.700;2023-08-07T01:22:18;99066.59;;;14.40;100.00
73860;BME280;62197;51.632;13.700;2023-08-07T01:24:48;99064.28;;;14.48;100.00
73860;BME280;62197;51.632;13.700;2023-08-07T01:35:02;99063.75;;;14.64;100.00
73860;BME280;62197;51.632;13.700;2023-08-07T01:37:31;99065.75;;;14.77;100.00
73860;BME280;62197;51.632;13.700;2023-08-07T01:39:58;99065.16;;;14.62;100.00
73860;BME280;62197;51.632;13.700;2023-08-07T01:42:25;99066.47;;;14.83;100.00
73860;BME280;62197;51.632;13.700;2023-08-07T01:44:51;99067.34;;;14.97;100.00
73860;BME280;62197;51.632;13.700;2023-08-07T01:47:16;99069.28;;;15.15;100.00
73860;BME280;62197;51.632;13.700;2023-08-07T01:49:41;99069.88;;;15.12;100.00
73860;BME280;62197;51.632;13.700;2023-08-07T01:52:08;99062.50;;;14.89;100.00
73860;BME280;62197;51.632;13.700;2023-08-07T01:54:33;99067.25;;;14.88;100.00
73860;BME280;62197;51.632;13.700;2023-08-07T01:56:58;99075.69;;;14.97;100.00
73860;BME280;62197;51.632;13.700;2023-08-07T01:59:24;99063.38;;;14.71;100.00
73860;BME280;62197;51.632;13.700;2023-08-07T02:01:49;99068.31;;;14.74;100.00
73860;BME280;62197;51.632;13.700;2023-08-07T02:04:14;99069.44;;;14.73;100.00
73860;BME280;62197;51.632;13.700;2023-08-07T02:06:40;99074.63;;;15.11;100.00
73860;BME280;62197;51.632;13.700;2023-08-07T02:09:05;99079.22;;;15.02;100.00
73860;BME280;62197;51.632;13.700;2023-08-07T02:11:30;99072.41;;;14.95;100.00
73860;BME280;62197;51.632;13.700;2023-08-07T02:13:56;99074.06;;;14.96;100.00
73860;BME280;62197;51.632;13.700;2023-08-07T02:16:21;99087.13;;;14.95;100.00
73860;BME280;62197;51.632;13.700;2023-08-07T02:18:46;99088.38;;;15.03;100.00
73860;BME280;62197;51.632;13.700;2023-08-07T02:21:12;99087.31;;;14.99;100.00
73860;BME280;62197;51.632;13.700;2023-08-07T02:23:37;99079.09;;;14.94;100.00
73860;BME280;62197;51.632;13.700;2023-08-07T02:26:02;99086.44;;;14.85;100.00
73860;BME280;62197;51.632;13.700;2023-08-07T02:28:28;99096.06;;;14.74;100.00
73860;BME280;62197;51.632;13.700;2023-08-07T02:30:53;99098.13;;;14.68;100.00
73860;BME280;62197;51.632;13.700;2023-08-07T02:33:19;99095.03;;;14.70;100.00
73860;BME280;62197;51.632;13.700;2023-08-07T02:35:44;99087.75;;;14.74;100.00
73860;BME280;62197;51.632;13.700;2023-08-07T02:38:10;99098.13;;;14.68;100.00
73860;BME280;62197;51.632;13.700;2023-08-07T02:40:36;99094.22;;;14.51;100.00
73860;BME280;62197;51.632;13.700;2023-08-07T02:43:01;99097.44;;;14.58;100.00
73860;BME280;62197;51.632;13.700;2023-08-07T02:45:26;99101.97;;;14.54;100.00
73860;BME280;62197;51.632;13.700;2023-08-07T02:47:52;99100.44;;;14.42;100.00
73860;BME280;62197;51.632;13.700;2023-08-07T02:50:17;99102.38;;;14.42;100.00
73860;BME280;62197;51.632;13.700;2023-08-07T02:52:42;99093.31;;;14.55;100.00
73860;BME280;62197;51.632;13.700;2023-08-07T02:55:08;99098.47;;;14.62;100.00
73860;BME280;62197;51.632;13.700;2023-08-07T02:57:33;99102.47;;;14.37;100.00
73860;BME280;62197;51.632;13.700;2023-08-07T02:59:59;99106.28;;;14.60;100.00
73860;BME280;62197;51.632;13.700;2023-08-07T03:02:24;99098.34;;;14.72;100.00
73860;BME280;62197;51.632;13.700;2023-08-07T03:04:49;99110.03;;;14.87;100.00
73860;BME280;62197;51.632;13.700;2023-08-07T03:07:15;99106.53;;;14.63;100.00
73860;BME280;62197;51.632;13.700;2023-08-07T03:09:40;99098.59;;;14.38;100.00
73860;BME280;62197;51.632;13.700;2023-08-07T03:12:05;99105.09;;;14.28;100.00
73860;BME280;62197;51.632;13.700;2023-08-07T03:14:31;99108.72;;;14.24;100.00
73860;BME280;62197;51.632;13.700;2023-08-07T03:16:56;99113.66;;;14.08;100.00
73860;BME280;62197;51.632;13.700;2023-08-07T03:19:22;99112.53;;;14.09;100.00
73860;BME280;62197;51.632;13.700;2023-08-07T03:21:47;99119.84;;;14.00;100.00
73860;BME280;62197;51.632;13.700;2023-08-07T03:24:12;99125.53;;;13.90;100.00
73860;BME280;62197;51.632;13.700;2023-08-07T03:26:38;99108.19;;;13.80;100.00
73860;BME280;62197;51.632;13.700;2023-08-07T03:29:03;99114.53;;;13.80;100.00
73860;BME280;62197;51.632;13.700;2023-08-07T03:31:28;99116.13;;;13.86;100.00
73860;BME280;62197;51.632;13.700;2023-08-07T03:33:54;99124.94;;;13.93;100.00
73860;BME280;62197;51.632;13.700;2023-08-07T03:36:19;99118.69;;;13.83;100.00
73860;BME280;62197;51.632;13.700;2023-08-07T03:38:44;99127.41;;;13.95;100.00
73860;BME280;62197;51.632;13.700;2023-08-07T03:41:10;99129.34;;;13.94;100.00
73860;BME280;62197;51.632;13.700;2023-08-07T03:43:35;99133.94;;;13.80;100.00
73860;BME280;62197;51.632;13.700;2023-08-07T03:46:00;99127.84;;;13.83;100.00
73860;BME280;62197;51.632;13.700;2023-08-07T03:48:26;99132.13;;;13.71;100.00
73860;BME280;62197;51.632;13.700;2023-08-07T03:50:51;99145.75;;;13.67;100.00
73860;BME280;62197;51.632;13.700;2023-08-07T03:53:17;99145.72;;;13.72;100.00
73860;BME280;62197;51.632;13.700;2023-08-07T03:55:42;99146.66;;;13.63;100.00
73860;BME280;62197;51.632;13.700;2023-08-07T03:58:08;99143.34;;;13.61;100.00
73860;BME280;62197;51.632;13.700;2023-08-07T04:00:33;99153.09;;;13.53;100.00
73860;BME280;62197;51.632;13.700;2023-08-07T04:02:58;99146.53;;;13.49;100.00
73860;BME280;62197;51.632;13.700;2023-08-07T04:05:24;99142.63;;;13.50;100.00
73860;BME280;62197;51.632;13.700;2023-08-07T04:07:49;99145.63;;;13.53;100.00
73860;BME280;62197;51.632;13.700;2023-08-07T04:10:15;99148.63;;;13.57;100.00
73860;BME280;62197;51.632;13.700;2023-08-07T04:12:40;99155.38;;;13.51;100.00
73860;BME280;62197;51.632;13.700;2023-08-07T04:15:06;99159.31;;;13.45;100.00
73860;BME280;62197;51.632;13.700;2023-08-07T04:17:31;99159.84;;;13.47;100.00
73860;BME280;62197;51.632;13.700;2023-08-07T04:19:57;99158.72;;;13.48;100.00
73860;BME280;62197;51.632;13.700;2023-08-07T04:22:22;99152.34;;;13.47;100.00
73860;BME280;62197;51.632;13.700;2023-08-07T04:24:47;99150.88;;;13.55;100.00
73860;BME280;62197;51.632;13.700;2023-08-07T04:27:13;99142.56;;;13.55;100.00
73860;BME280;62197;51.632;13.700;2023-08-07T04:29:38;99152.06;;;13.49;100.00
73860;BME280;62197;51.632;13.700;2023-08-07T04:32:04;99162.56;;;13.52;100.00
73860;BME280;62197;51.632;13.700;2023-08-07T04:34:29;99160.38;;;13.73;100.00
73860;BME280;62197;51.632;13.700;2023-08-07T04:36:55;99160.69;;;13.71;100.00
73860;BME280;62197;51.632;13.700;2023-08-07T04:39:21;99160.16;;;13.69;100.00
73860;BME280;62197;51.632;13.700;2023-08-07T04:41:46;99168.69;;;13.73;100.00
73860;BME280;62197;51.632;13.700;2023-08-07T04:44:12;99167.91;;;13.72;100.00
73860;BME280;62197;51.632;13.700;2023-08-07T04:46:38;99169.53;;;13.73;100.00
73860;BME280;62197;51.632;13.700;2023-08-07T04:49:03;99173.97;;;13.74;100.00
73860;BME280;62197;51.632;13.700;2023-08-07T04:51:28;99168.38;;;13.79;100.00
73860;BME280;62197;51.632;13.700;2023-08-07T04:53:55;99175.81;;;13.84;100.00
73860;BME280;62197;51.632;13.700;2023-08-07T04:56:21;99183.47;;;13.92;100.00
73860;BME280;62197;51.632;13.700;2023-08-07T04:58:47;99180.47;;;14.12;100.00
73860;BME280;62197;51.632;13.700;2023-08-07T05:01:12;99176.94;;;14.06;100.00
73860;BME280;62197;51.632;13.700;2023-08-07T05:03:37;99174.72;;;14.03;100.00
73860;BME280;62197;51.632;13.700;2023-08-07T05:06:03;99168.59;;;14.06;100.00
73860;BME280;62197;51.632;13.700;2023-08-07T05:08:28;99180.78;;;14.10;100.00
73860;BME280;62197;51.632;13.700;2023-08-07T05:10:54;99186.88;;;14.07;100.00
73860;BME280;62197;51.632;13.700;2023-08-07T05:13:19;99188.38;;;14.23;100.00
73860;BME280;62197;51.632;13.700;2023-08-07T05:15:46;99187.84;;;14.21;100.00
73860;BME280;62197;51.632;13.700;2023-08-07T05:18:12;99203.34;;;14.27;100.00
73860;BME280;62197;51.632;13.700;2023-08-07T05:20:37;99205.00;;;14.28;100.00
73860;BME280;62197;51.632;13.700;2023-08-07T05:23:02;99192.25;;;14.27;100.00
73860;BME280;62197;51.632;13.700;2023-08-07T05:25:28;99194.13;;;14.32;100.00
73860;BME280;62197;51.632;13.700;2023-08-07T05:27:53;99197.97;;;14.36;100.00
73860;BME280;62197;51.632;13.700;2023-08-07T05:30:18;99192.88;;;14.43;100.00
73860;BME280;62197;51.632;13.700;2023-08-07T05:32:44;99191.50;;;14.40;100.00
73860;BME280;62197;51.632;13.700;2023-08-07T05:35:09;99196.34;;;14.54;100.00
73860;BME280;62197;51.632;13.700;2023-08-07T05:37:35;99198.44;;;14.62;100.00
73860;BME280;62197;51.632;13.700;2023-08-07T05:40:01;99209.41;;;14.72;100.00
73860;BME280;62197;51.632;13.700;2023-08-07T05:42:26;99199.72;;;14.69;100.00
73860;BME280;62197;51.632;13.700;2023-08-07T05:44:51;99203.19;;;14.80;100.00
73860;BME280;62197;51.632;13.700;2023-08-07T05:47:17;99210.47;;;14.76;100.00
73860;BME280;62197;51.632;13.700;2023-08-07T05:49:42;99211.09;;;14.73;100.00
73860;BME280;62197;51.632;13.700;2023-08-07T05:52:07;99214.75;;;14.68;100.00
73860;BME280;62197;51.632;13.700;2023-08-07T05:54:33;99214.38;;;14.75;100.00
73860;BME280;62197;51.632;13.700;2023-08-07T05:56:58;99218.13;;;14.84;100.00
73860;BME280;62197;51.632;13.700;2023-08-07T05:59:24;99212.44;;;14.94;100.00
73860;BME280;62197;51.632;13.700;2023-08-07T06:01:49;99215.94;;;15.18;100.00
73860;BME280;62197;51.632;13.700;2023-08-07T06:04:16;99209.69;;;15.26;100.00
73860;BME280;62197;51.632;13.700;2023-08-07T06:06:41;99217.25;;;15.39;100.00
73860;BME280;62197;51.632;13.700;2023-08-07T06:09:08;99214.44;;;15.44;100.00
73860;BME280;62197;51.632;13.700;2023-08-07T06:11:33;99212.84;;;15.38;100.00
73860;BME280;62197;51.632;13.700;2023-08-07T06:13:58;99219.31;;;15.33;100.00
73860;BME280;62197;51.632;13.700;2023-08-07T06:16:24;99210.31;;;15.23;100.00
73860;BME280;62197;51.632;13.700;2023-08-07T06:18:49;99225.13;;;15.18;100.00
73860;BME280;62197;51.632;13.700;2023-08-07T06:21:15;99227.69;;;15.15;100.00
73860;BME280;62197;51.632;13.700;2023-08-07T06:23:40;99212.28;;;15.04;100.00
73860;BME280;62197;51.632;13.700;2023-08-07T06:26:05;99236.59;;;15.12;100.00
73860;BME280;62197;51.632;13.700;2023-08-07T06:28:33;99227.72;;;15.10;100.00
73860;BME280;62197;51.632;13.700;2023-08-07T06:31:02;99226.84;;;15.14;100.00
73860;BME280;62197;51.632;13.700;2023-08-07T06:33:28;99219.41;;;15.10;100.00
73860;BME280;62197;51.632;13.700;2023-08-07T06:35:53;99225.13;;;15.18;100.00
73860;BME280;62197;51.632;13.700;2023-08-07T06:38:19;99231.03;;;15.30;100.00
73860;BME280;62197;51.632;13.700;2023-08-07T06:40:44;99230.31;;;15.25;100.00
73860;BME280;62197;51.632;13.700;2023-08-07T06:43:09;99231.63;;;15.27;100.00
73860;BME280;62197;51.632;13.700;2023-08-07T06:45:35;99238.91;;;15.23;100.00
73860;BME280;62197;51.632;13.700;2023-08-07T06:48:00;99241.47;;;15.20;100.00
73860;BME280;62197;51.632;13.700;2023-08-07T06:50:25;99246.97;;;15.25;100.00
73860;BME280;62197;51.632;13.700;2023-08-07T06:52:51;99229.84;;;15.18;100.00
73860;BME280;62197;51.632;13.700;2023-08-07T06:55:16;99229.25;;;15.21;100.00
73860;BME280;62197;51.632;13.700;2023-08-07T06:57:41;99236.22;;;15.18;100.00
73860;BME280;62197;51.632;13.700;2023-08-07T07:00:07;99246.16;;;15.24;100.00
73860;BME280;62197;51.632;13.700;2023-08-07T07:02:33;99244.50;;;15.42;100.00
73860;BME280;62197;51.632;13.700;2023-08-07T07:04:58;99250.09;;;15.37;100.00
73860;BME280;62197;51.632;13.700;2023-08-07T07:07:23;99239.47;;;15.44;100.00
73860;BME280;62197;51.632;13.700;2023-08-07T07:09:49;99245.50;;;15.65;100.00
73860;BME280;62197;51.632;13.700;2023-08-07T07:12:14;99249.03;;;15.70;100.00
73860;BME280;62197;51.632;13.700;2023-08-07T07:14:39;99250.06;;;15.74;100.00
73860;BME280;62197;51.632;13.700;2023-08-07T07:17:05;99245.00;;;15.95;100.00
73860;BME280;62197;51.632;13.700;2023-08-07T07:19:30;99245.00;;;16.08;100.00
73860;BME280;62197;51.632;13.700;2023-08-07T07:21:55;99249.44;;;16.23;100.00
73860;BME280;62197;51.632;13.700;2023-08-07T07:24:21;99243.16;;;16.17;100.00
73860;BME280;62197;51.632;13.700;2023-08-07T07:26:46;99241.09;;;16.37;100.00
73860;BME280;62197;51.632;13.700;2023-08-07T07:29:11;99233.66;;;16.86;100.00
73860;BME280;62197;51.632;13.700;2023-08-07T07:31:37;99247.72;;;16.81;100.00
73860;BME280;62197;51.632;13.700;2023-08-07T07:34:02;99236.53;;;16.95;100.00
73860;BME280;62197;51.632;13.700;2023-08-07T07:36:28;99229.34;;;16.80;100.00
73860;BME280;62197;51.632;13.700;2023-08-07T07:38:54;99238.44;;;16.86;100.00
73860;BME280;62197;51.632;13.700;2023-08-07T07:41:19;99230.56;;;16.88;100.00
73860;BME280;62197;51.632;13.700;2023-08-07T07:43:44;99237.63;;;16.72;100.00
73860;BME280;62197;51.632;13.700;2023-08-07T07:46:10;99249.16;;;16.65;100.00
73860;BME280;62197;51.632;13.700;2023-08-07T07:48:35;99250.81;;;16.80;100.00
73860;BME280;62197;51.632;13.700;2023-08-07T07:51:02;99263.63;;;16.54;100.00
73860;BME280;62197;51.632;13.700;2023-08-07T07:53:27;99276.63;;;16.58;100.00
73860;BME280;62197;51.632;13.700;2023-08-07T07:55:53;99255.56;;;16.66;100.00
73860;BME280;62197;51.632;13.700;2023-08-07T07:58:19;99248.75;;;16.85;100.00
73860;BME280;62197;51.632;13.700;2023-08-07T08:00:45;99255.50;;;17.06;100.00
73860;BME280;62197;51.632;13.700;2023-08-07T08:03:10;99256.91;;;17.17;100.00
73860;BME280;62197;51.632;13.700;2023-08-07T08:05:37;99256.09;;;17.17;100.00
73860;BME280;62197;51.632;13.700;2023-08-07T08:08:03;99259.69;;;16.95;100.00
73860;BME280;62197;51.632;13.700;2023-08-07T08:10:28;99257.19;;;16.94;100.00
73860;BME280;62197;51.632;13.700;2023-08-07T08:12:57;99267.66;;;17.24;100.00
73860;BME280;62197;51.632;13.700;2023-08-07T08:15:22;99263.53;;;17.57;100.00
73860;BME280;62197;51.632;13.700;2023-08-07T08:17:48;99251.22;;;17.58;100.00
73860;BME280;62197;51.632;13.700;2023-08-07T08:20:14;99251.59;;;17.87;100.00
73860;BME280;62197;51.632;13.700;2023-08-07T08:22:44;99254.09;;;17.67;100.00
73860;BME280;62197;51.632;13.700;2023-08-07T08:25:09;99249.69;;;17.52;100.00
73860;BME280;62197;51.632;13.700;2023-08-07T08:27:35;99234.59;;;17.97;100.00
73860;BME280;62197;51.632;13.700;2023-08-07T08:30:00;99250.84;;;17.95;100.00
73860;BME280;62197;51.632;13.700;2023-08-07T08:32:25;99254.31;;;18.01;100.00
73860;BME280;62197;51.632;13.700;2023-08-07T08:34:51;99254.03;;;17.80;100.00
73860;BME280;62197;51.632;13.700;2023-08-07T08:37:16;99261.00;;;17.91;100.00
73860;BME280;62197;51.632;13.700;2023-08-07T08:39:42;99264.78;;;17.95;100.00
73860;BME280;62197;51.632;13.700;2023-08-07T08:42:10;99266.56;;;17.91;100.00
73860;BME280;62197;51.632;13.700;2023-08-07T08:44:36;99257.97;;;18.10;100.00
73860;BME280;62197;51.632;13.700;2023-08-07T08:47:04;99272.81;;;17.88;100.00
73860;BME280;62197;51.632;13.700;2023-08-07T08:49:44;99265.47;;;18.32;100.00
73860;BME280;62197;51.632;13.700;2023-08-07T08:52:11;99264.66;;;18.31;100.00
73860;BME280;62197;51.632;13.700;2023-08-07T08:54:37;99258.59;;;18.38;100.00
73860;BME280;62197;51.632;13.700;2023-08-07T08:57:03;99256.78;;;18.02;100.00
73860;BME280;62197;51.632;13.700;2023-08-07T08:59:28;99269.88;;;17.93;100.00
73860;BME280;62197;51.632;13.700;2023-08-07T09:01:54;99283.28;;;17.47;100.00
73860;BME280;62197;51.632;13.700;2023-08-07T09:04:19;99290.53;;;17.48;100.00
73860;BME280;62197;51.632;13.700;2023-08-07T09:06:45;99292.25;;;17.44;100.00
73860;BME280;62197;51.632;13.700;2023-08-07T09:09:13;99265.06;;;17.63;100.00
73860;BME280;62197;51.632;13.700;2023-08-07T09:11:40;99285.88;;;17.57;100.00
73860;BME280;62197;51.632;13.700;2023-08-07T09:14:06;99283.50;;;17.51;100.00
73860;BME280;62197;51.632;13.700;2023-08-07T09:16:32;99290.94;;;17.55;100.00
73860;BME280;62197;51.632;13.700;2023-08-07T09:18:58;99282.66;;;17.94;100.00
73860;BME280;62197;51.632;13.700;2023-08-07T09:21:24;99283.56;;;18.03;100.00
73860;BME280;62197;51.632;13.700;2023-08-07T09:23:49;99293.50;;;18.18;100.00
73860;BME280;62197;51.632;13.700;2023-08-07T09:26:21;99292.06;;;17.98;100.00
73860;BME280;62197;51.632;13.700;2023-08-07T09:28:51;99294.13;;;17.84;100.00
73860;BME280;62197;51.632;13.700;2023-08-07T09:31:16;99296.84;;;18.29;100.00
73860;BME280;62197;51.632;13.700;2023-08-07T09:33:41;99295.75;;;18.38;100.00
73860;BME280;62197;51.632;13.700;2023-08-07T09:36:07;99299.16;;;18.35;100.00
73860;BME280;62197;51.632;13.700;2023-08-07T09:38:32;99297.22;;;18.36;100.00
73860;BME280;62197;51.632;13.700;2023-08-07T09:41:01;99293.97;;;18.73;100.00
73860;BME280;62197;51.632;13.700;2023-08-07T09:43:28;99290.56;;;18.93;100.00
73860;BME280;62197;51.632;13.700;2023-08-07T09:46:10;99293.00;;;18.86;100.00
73860;BME280;62197;51.632;13.700;2023-08-07T09:48:40;99285.13;;;18.88;100.00
73860;BME280;62197;51.632;13.700;2023-08-07T09:51:06;99290.72;;;18.88;100.00
73860;BME280;62197;51.632;13.700;2023-08-07T09:53:31;99282.88;;;19.07;100.00
73860;BME280;62197;51.632;13.700;2023-08-07T09:55:57;99280.19;;;18.93;100.00
73860;BME280;62197;51.632;13.700;2023-08-07T09:58:23;99293.56;;;19.05;100.00
73860;BME280;62197;51.632;13.700;2023-08-07T10:00:49;99285.19;;;19.22;100.00
73860;BME280;62197;51.632;13.700;2023-08-07T10:03:15;99279.00;;;19.76;100.00
73860;BME280;62197;51.632;13.700;2023-08-07T10:05:42;99275.81;;;20.04;100.00
73860;BME280;62197;51.632;13.700;2023-08-07T10:08:08;99273.97;;;20.42;100.00
73860;BME280;62197;51.632;13.700;2023-08-07T10:10:35;99278.69;;;20.50;100.00
73860;BME280;62197;51.632;13.700;2023-08-07T10:13:02;99283.16;;;20.51;100.00
73860;BME280;62197;51.632;13.700;2023-08-07T10:15:29;99280.84;;;20.53;100.00
73860;BME280;62197;51.632;13.700;2023-08-07T10:17:56;99288.25;;;20.49;100.00
73860;BME280;62197;51.632;13.700;2023-08-07T10:20:21;99281.13;;;20.60;100.00
73860;BME280;62197;51.632;13.700;2023-08-07T10:22:46;99292.81;;;20.62;100.00
73860;BME280;62197;51.632;13.700;2023-08-07T10:25:13;99283.06;;;20.30;100.00
73860;BME280;62197;51.632;13.700;2023-08-07T10:27:40;99277.28;;;20.27;100.00
73860;BME280;62197;51.632;13.700;2023-08-07T10:30:08;99280.38;;;20.80;100.00
73860;BME280;62197;51.632;13.700;2023-08-07T10:32:35;99275.28;;;20.74;100.00
73860;BME280;62197;51.632;13.700;2023-08-07T10:35:04;99281.50;;;20.50;100.00
73860;BME280;62197;51.632;13.700;2023-08-07T10:37:40;99292.81;;;20.07;100.00
73860;BME280;62197;51.632;13.700;2023-08-07T10:40:07;99277.75;;;20.46;100.00
73860;BME280;62197;51.632;13.700;2023-08-07T10:45:20;99275.25;;;20.82;100.00
73860;BME280;62197;51.632;13.700;2023-08-07T10:50:28;99268.03;;;21.10;100.00
73860;BME280;62197;51.632;13.700;2023-08-07T10:52:54;99256.28;;;20.79;100.00
73860;BME280;62197;51.632;13.700;2023-08-07T10:55:19;99276.22;;;20.48;100.00
73860;BME280;62197;51.632;13.700;2023-08-07T10:57:46;99285.63;;;20.90;100.00
73860;BME280;62197;51.632;13.700;2023-08-07T11:00:12;99286.41;;;20.91;100.00
73860;BME280;62197;51.632;13.700;2023-08-07T11:02:38;99274.00;;;21.00;100.00
73860;BME280;62197;51.632;13.700;2023-08-07T11:05:06;99288.28;;;21.16;100.00
73860;BME280;62197;51.632;13.700;2023-08-07T11:07:32;99281.13;;;20.98;100.00
73860;BME280;62197;51.632;13.700;2023-08-07T11:09:58;99283.09;;;21.06;100.00
73860;BME280;62197;51.632;13.700;2023-08-07T11:12:25;99277.63;;;20.34;100.00
73860;BME280;62197;51.632;13.700;2023-08-07T11:14:51;99288.16;;;21.12;100.00
73860;BME280;62197;51.632;13.700;2023-08-07T11:17:18;99294.53;;;20.92;100.00
73860;BME280;62197;51.632;13.700;2023-08-07T11:19:46;99301.66;;;20.18;100.00
73860;BME280;62197;51.632;13.700;2023-08-07T11:22:12;99287.09;;;19.78;100.00
73860;BME280;62197;51.632;13.700;2023-08-07T11:24:37;99280.94;;;20.02;100.00
73860;BME280;62197;51.632;13.700;2023-08-07T11:27:03;99288.59;;;20.47;100.00
73860;BME280;62197;51.632;13.700;2023-08-07T11:29:28;99288.88;;;19.83;100.00
73860;BME280;62197;51.632;13.700;2023-08-07T11:31:54;99284.91;;;19.32;100.00
73860;BME280;62197;51.632;13.700;2023-08-07T11:34:20;99286.84;;;19.23;100.00
73860;BME280;62197;51.632;13.700;2023-08-07T11:36:46;99294.09;;;19.24;100.00
73860;BME280;62197;51.632;13.700;2023-08-07T11:39:12;99277.38;;;20.85;100.00
73860;BME280;62197;51.632;13.700;2023-08-07T11:41:38;99285.59;;;20.52;100.00
73860;BME280;62197;51.632;13.700;2023-08-07T11:44:04;99294.94;;;20.10;100.00
73860;BME280;62197;51.632;13.700;2023-08-07T11:46:29;99294.56;;;20.46;100.00
73860;BME280;62197;51.632;13.700;2023-08-07T11:48:55;99291.81;;;21.04;100.00
73860;BME280;62197;51.632;13.700;2023-08-07T11:51:21;99281.47;;;22.08;100.00
73860;BME280;62197;51.632;13.700;2023-08-07T11:53:46;99287.38;;;22.27;100.00
73860;BME280;62197;51.632;13.700;2023-08-07T11:56:13;99284.56;;;21.94;100.00
73860;BME280;62197;51.632;13.700;2023-08-07T11:58:44;99280.91;;;20.36;100.00
73860;BME280;62197;51.632;13.700;2023-08-07T12:01:17;99288.84;;;20.17;100.00
73860;BME280;62197;51.632;13.700;2023-08-07T12:03:55;99296.41;;;20.25;100.00
73860;BME280;62197;51.632;13.700;2023-08-07T12:06:21;99292.13;;;20.74;100.00
73860;BME280;62197;51.632;13.700;2023-08-07T12:08:49;99294.34;;;21.47;100.00
73860;BME280;62197;51.632;13.700;2023-08-07T12:11:16;99298.91;;;21.81;100.00
73860;BME280;62197;51.632;13.700;2023-08-07T12:13:43;99296.81;;;21.69;100.00
73860;BME280;62197;51.632;13.700;2023-08-07T12:16:10;99306.28;;;21.15;100.00
73860;BME280;62197;51.632;13.700;2023-08-07T12:18:47;99308.28;;;20.22;100.00
73860;BME280;62197;51.632;13.700;2023-08-07T12:21:17;99311.78;;;19.50;100.00
73860;BME280;62197;51.632;13.700;2023-08-07T12:23:44;99338.38;;;18.44;100.00
73860;BME280;62197;51.632;13.700;2023-08-07T12:26:09;99327.25;;;18.08;100.00
73860;BME280;62197;51.632;13.700;2023-08-07T12:28:34;99339.25;;;18.09;100.00
73860;BME280;62197;51.632;13.700;2023-08-07T12:31:00;99332.66;;;18.04;100.00
73860;BME280;62197;51.632;13.700;2023-08-07T12:33:26;99343.75;;;18.18;100.00
73860;BME280;62197;51.632;13.700;2023-08-07T12:35:52;99332.84;;;19.65;100.00
73860;BME280;62197;51.632;13.700;2023-08-07T12:38:18;99323.78;;;20.28;100.00
73860;BME280;62197;51.632;13.700;2023-08-07T12:40:44;99322.69;;;19.04;100.00
73860;BME280;62197;51.632;13.700;2023-08-07T12:43:09;99313.47;;;18.56;100.00
73860;BME280;62197;51.632;13.700;2023-08-07T12:45:35;99309.44;;;18.79;100.00
73860;BME280;62197;51.632;13.700;2023-08-07T12:48:00;99321.25;;;18.76;100.00